createdAt,value
2022-12-04T00:01:07.516Z,26.83
2022-12-04T00:03:35.847Z,24.13
2022-12-04T00:06:05.173Z,26.30
2022-12-04T00:08:34.819Z,25.10
2022-12-04T00:11:04.348Z,25.77
2022-12-04T00:13:32.461Z,24.47
2022-12-04T00:16:00.751Z,26.77
2022-12-04T00:18:28.778Z,24.10
2022-12-04T00:20:56.691Z,26.30
2022-12-04T00:23:24.644Z,24.13
2022-12-04T00:25:53.927Z,25.60
2022-12-04T00:28:21.903Z,25.03
2022-12-04T00:30:50.018Z,24.90
2022-12-04T00:33:17.918Z,24.87
2022-12-04T00:35:45.835Z,25.53
2022-12-04T00:38:13.846Z,26.80
2022-12-04T00:40:49.005Z,26.13
2022-12-04T00:43:18.331Z,24.43
2022-12-04T00:45:46.325Z,26.10
2022-12-04T00:48:14.250Z,23.07
2022-12-04T00:50:42.471Z,25.17
2022-12-04T00:53:10.421Z,25.23
2022-12-04T00:55:39.499Z,24.07
2022-12-04T00:58:07.807Z,25.23
2022-12-04T01:00:37.803Z,24.20
2022-12-04T01:03:06.317Z,25.03
2022-12-04T01:05:39.014Z,26.23
2022-12-04T01:08:07.298Z,25.00
2022-12-04T01:10:35.446Z,25.43
2022-12-04T01:13:03.369Z,24.97
2022-12-04T01:15:31.332Z,25.60
2022-12-04T01:18:00.941Z,26.90
2022-12-04T01:20:28.913Z,25.13
2022-12-04T01:22:56.885Z,25.57
2022-12-04T01:25:24.749Z,25.30
2022-12-04T01:27:52.681Z,25.37
2022-12-04T01:30:20.802Z,24.90
2022-12-04T01:32:48.839Z,25.97
2022-12-04T01:35:18.269Z,25.60
2022-12-04T01:37:46.233Z,25.23
2022-12-04T01:40:15.893Z,25.30
2022-12-04T01:42:43.876Z,26.63
2022-12-04T01:45:39.575Z,24.83
2022-12-04T01:48:15.297Z,23.77
2022-12-04T01:50:46.014Z,23.27
2022-12-04T01:53:15.101Z,23.27
2022-12-04T01:55:44.509Z,23.93
2022-12-04T01:58:13.207Z,25.20
2022-12-04T02:00:41.358Z,24.87
2022-12-04T02:03:09.602Z,23.63
2022-12-04T02:05:37.632Z,25.13
2022-12-04T02:08:07.095Z,23.90
2022-12-04T02:10:43.721Z,25.17
2022-12-04T02:13:18.561Z,23.27
2022-12-04T02:15:54.293Z,24.53
2022-12-04T02:18:30.629Z,25.20
2022-12-04T02:21:04.803Z,25.37
2022-12-04T02:23:54.638Z,26.10
2022-12-04T02:26:38.820Z,25.43
2022-12-04T02:29:13.047Z,23.63
2022-12-04T02:31:47.162Z,24.53
2022-12-04T02:34:21.467Z,24.57
2022-12-04T02:36:55.034Z,24.90
2022-12-04T02:39:26.090Z,24.70
2022-12-04T02:41:58.617Z,24.93
2022-12-04T02:44:31.196Z,24.00
2022-12-04T02:47:03.277Z,22.80
2022-12-04T02:49:35.548Z,22.03
2022-12-04T02:52:07.912Z,22.40
2022-12-04T02:54:39.814Z,23.40
2022-12-04T02:57:12.373Z,23.27
2022-12-04T02:59:44.399Z,23.50
2022-12-04T03:02:16.737Z,22.27
2022-12-04T03:04:50.754Z,21.90
2022-12-04T03:07:21.777Z,19.67
2022-12-04T03:09:54.045Z,19.23
2022-12-04T03:12:28.812Z,20.37
2022-12-04T03:15:02.512Z,20.43
2022-12-04T03:17:34.322Z,20.33
2022-12-04T03:20:07.202Z,22.53
2022-12-04T03:22:37.805Z,22.13
2022-12-04T03:25:08.315Z,22.00
2022-12-04T03:27:44.837Z,22.50
2022-12-04T03:30:18.785Z,21.30
2022-12-04T03:32:51.442Z,20.40
2022-12-04T03:35:24.674Z,22.80
2022-12-04T03:37:57.945Z,22.47
2022-12-04T03:40:30.469Z,20.00
2022-12-04T03:43:05.399Z,22.70
2022-12-04T03:45:41.539Z,21.10
2022-12-04T03:48:22.510Z,21.83
2022-12-04T03:50:56.993Z,21.87
2022-12-04T03:53:31.655Z,21.80
2022-12-04T03:56:06.166Z,21.23
2022-12-04T03:58:36.833Z,19.37
2022-12-04T04:01:10.456Z,21.33
2022-12-04T04:03:44.490Z,21.10
2022-12-04T04:06:17.398Z,19.53
2022-12-04T04:08:49.267Z,19.60
2022-12-04T04:11:21.140Z,20.63
2022-12-04T04:14:19.297Z,20.23
2022-12-04T04:17:12.444Z,21.17
2022-12-04T04:20:00.753Z,20.20
2022-12-04T04:22:57.893Z,22.70
2022-12-04T04:25:28.867Z,21.23
2022-12-04T04:27:58.475Z,19.50
2022-12-04T04:30:28.781Z,21.20
2022-12-04T04:33:04.003Z,20.73
2022-12-04T04:35:40.788Z,22.67
2022-12-04T04:38:16.617Z,22.93
2022-12-04T04:40:55.564Z,22.63
2022-12-04T04:43:29.415Z,20.97
2022-12-04T04:46:01.671Z,22.10
2022-12-04T04:48:35.713Z,23.27
2022-12-04T04:51:05.207Z,20.90
2022-12-04T04:53:38.705Z,22.73
2022-12-04T04:56:07.841Z,24.13
2022-12-04T04:58:36.080Z,22.77
2022-12-04T05:01:06.625Z,23.70
2022-12-04T05:03:36.378Z,23.20
2022-12-04T05:06:04.522Z,21.93
2022-12-04T05:08:32.537Z,22.70
2022-12-04T05:11:00.506Z,22.03
2022-12-04T05:13:29.430Z,20.53
2022-12-04T05:15:58.611Z,23.37
2022-12-04T05:18:26.721Z,21.97
2022-12-04T05:20:55.404Z,21.97
2022-12-04T05:23:23.609Z,22.73
2022-12-04T05:25:51.826Z,22.07
2022-12-04T05:28:19.803Z,25.83
2022-12-04T05:30:55.149Z,24.47
2022-12-04T05:33:23.179Z,23.70
2022-12-04T05:35:59.412Z,23.03
2022-12-04T05:38:27.449Z,24.07
2022-12-04T05:40:55.448Z,22.87
2022-12-04T05:43:23.438Z,23.20
2022-12-04T05:45:51.509Z,22.37
2022-12-04T05:48:19.525Z,20.40
2022-12-04T05:50:47.567Z,21.67
2022-12-04T05:53:16.856Z,21.13
2022-12-04T05:55:44.818Z,22.27
2022-12-04T05:58:12.894Z,23.63
2022-12-04T06:00:40.883Z,21.60
2022-12-04T06:03:08.955Z,22.77
2022-12-04T06:05:36.957Z,21.67
2022-12-04T06:08:05.141Z,20.87
2022-12-04T06:10:34.527Z,21.63
2022-12-04T06:13:02.597Z,21.77
2022-12-04T06:15:30.479Z,21.87
2022-12-04T06:17:58.466Z,21.27
2022-12-04T06:20:26.428Z,21.43
2022-12-04T06:22:54.492Z,20.57
2022-12-04T06:25:22.490Z,22.00
2022-12-04T06:27:52.601Z,22.10
2022-12-04T06:30:20.574Z,21.53
2022-12-04T06:32:48.514Z,20.67
2022-12-04T06:35:16.678Z,22.53
2022-12-04T06:37:44.598Z,22.23
2022-12-04T06:40:12.954Z,21.27
2022-12-04T06:42:40.898Z,22.33
2022-12-04T06:45:11.995Z,22.40
2022-12-04T06:47:39.946Z,21.37
2022-12-04T06:50:09.305Z,20.70
2022-12-04T06:52:37.297Z,21.63
2022-12-04T06:55:05.735Z,21.40
2022-12-04T06:57:34.589Z,21.33
2022-12-04T07:00:02.559Z,21.00
2022-12-04T07:02:31.956Z,20.73
2022-12-04T07:04:59.890Z,21.27
2022-12-04T07:07:27.822Z,20.63
2022-12-04T07:09:55.962Z,18.60
2022-12-04T07:12:24.052Z,20.30
2022-12-04T07:14:52.013Z,19.87
2022-12-04T07:17:19.886Z,19.53
2022-12-04T07:19:49.199Z,20.43
2022-12-04T07:22:17.263Z,19.63
2022-12-04T07:24:45.185Z,18.70
2022-12-04T07:27:13.073Z,19.97
2022-12-04T07:29:42.678Z,20.70
2022-12-04T07:32:10.629Z,19.83
2022-12-04T07:34:38.605Z,19.63
2022-12-04T07:37:07.905Z,20.37
2022-12-04T07:39:35.993Z,20.43
2022-12-04T07:42:03.966Z,21.30
2022-12-04T07:44:32.539Z,20.77
2022-12-04T07:47:00.656Z,20.90
2022-12-04T07:49:28.564Z,18.83
2022-12-04T07:51:56.464Z,20.80
2022-12-04T07:54:25.717Z,19.73
2022-12-04T07:56:53.717Z,19.80
2022-12-04T07:59:21.617Z,20.87
2022-12-04T08:01:49.598Z,21.10
2022-12-04T08:04:17.670Z,21.77
2022-12-04T08:06:45.816Z,20.87
2022-12-04T08:09:13.760Z,20.30
2022-12-04T08:11:43.011Z,21.67
2022-12-04T08:14:13.521Z,19.97
2022-12-04T08:16:41.611Z,22.23
2022-12-04T08:19:09.627Z,21.43
2022-12-04T08:21:37.760Z,21.57
2022-12-04T08:24:06.035Z,20.67
2022-12-04T08:26:34.300Z,21.07
2022-12-04T08:29:04.554Z,22.10
2022-12-04T08:31:35.492Z,21.73
2022-12-04T08:34:05.769Z,21.67
2022-12-04T08:36:34.254Z,21.13
2022-12-04T08:39:02.327Z,21.40
2022-12-04T08:41:30.312Z,21.27
2022-12-04T08:43:59.085Z,21.70
2022-12-04T08:46:29.354Z,22.10
2022-12-04T08:48:58.255Z,22.17
2022-12-04T08:51:28.099Z,21.93
2022-12-04T08:53:56.987Z,21.87
2022-12-04T08:56:25.140Z,21.83
2022-12-04T08:58:53.199Z,21.17
2022-12-04T09:01:21.348Z,20.37
2022-12-04T09:03:50.752Z,23.70
2022-12-04T09:06:19.697Z,22.47
2022-12-04T09:08:47.671Z,21.77
2022-12-04T09:11:18.158Z,21.10
2022-12-04T09:13:46.897Z,21.23
2022-12-04T09:16:16.897Z,20.90
2022-12-04T09:18:44.930Z,20.87
2022-12-04T09:21:16.464Z,22.30
2022-12-04T09:23:44.685Z,22.27
2022-12-04T09:26:19.340Z,22.60
2022-12-04T09:28:47.410Z,22.37
2022-12-04T09:31:15.764Z,21.43
2022-12-04T09:33:43.916Z,20.80
2022-12-04T09:36:15.984Z,20.23
2022-12-04T09:38:46.618Z,20.20
2022-12-04T09:41:41.785Z,21.13
2022-12-04T09:44:15.562Z,20.17
2022-12-04T09:46:51.398Z,21.73
2022-12-04T09:49:24.916Z,20.50
2022-12-04T09:51:55.508Z,20.30
2022-12-04T09:54:27.757Z,19.23
2022-12-04T09:57:00.176Z,19.30
2022-12-04T09:59:31.603Z,19.13
2022-12-04T10:02:04.449Z,19.67
2022-12-04T10:04:32.461Z,19.37
2022-12-04T10:07:05.933Z,21.30
2022-12-04T10:09:46.309Z,19.77
2022-12-04T10:12:23.400Z,19.50
2022-12-04T10:15:04.985Z,18.80
2022-12-04T10:17:44.776Z,19.07
2022-12-04T10:20:27.823Z,18.57
2022-12-04T10:23:09.250Z,18.77
2022-12-04T10:25:42.495Z,19.00
2022-12-04T10:28:21.786Z,18.17
2022-12-04T10:30:51.557Z,18.70
2022-12-04T10:33:24.724Z,17.63
2022-12-04T10:35:54.846Z,20.03
2022-12-04T10:38:32.803Z,19.17
2022-12-04T10:41:10.256Z,19.40
2022-12-04T10:43:45.553Z,18.87
2022-12-04T10:46:16.434Z,17.73
2022-12-04T10:48:47.522Z,19.13
2022-12-04T10:51:17.061Z,17.90
2022-12-04T10:53:46.209Z,16.63
2022-12-04T10:56:17.975Z,19.30
2022-12-04T10:58:56.879Z,18.10
2022-12-04T11:01:25.201Z,17.57
2022-12-04T11:04:00.179Z,17.30
2022-12-04T11:06:29.421Z,17.50
2022-12-04T11:08:58.293Z,19.40
2022-12-04T11:11:29.937Z,20.43
2022-12-04T11:14:14.332Z,19.60
2022-12-04T11:16:44.644Z,20.77
2022-12-04T11:19:24.999Z,20.43
2022-12-04T11:21:53.750Z,19.67
2022-12-04T11:24:24.506Z,20.37
2022-12-04T11:26:54.239Z,18.20
2022-12-04T11:29:27.256Z,18.00
2022-12-04T11:31:59.347Z,19.00
2022-12-04T11:34:36.227Z,19.97
2022-12-04T11:37:05.682Z,18.63
2022-12-04T11:39:37.731Z,20.50
2022-12-04T11:42:17.567Z,19.40
2022-12-04T11:44:53.062Z,19.43
2022-12-04T11:47:22.873Z,18.50
2022-12-04T11:50:03.594Z,19.33
2022-12-04T11:52:46.471Z,19.27
2022-12-04T11:55:23.915Z,18.87
2022-12-04T11:58:24.827Z,20.63
2022-12-04T12:01:01.934Z,19.33
2022-12-04T12:03:35.970Z,18.87
2022-12-04T12:06:14.926Z,19.40
2022-12-04T12:09:17.406Z,20.37
2022-12-04T12:11:57.107Z,19.77
2022-12-04T12:14:35.798Z,19.70
2022-12-04T12:17:15.665Z,20.70
2022-12-04T12:20:08.904Z,20.53
2022-12-04T12:23:03.004Z,19.43
2022-12-04T12:25:39.722Z,19.53
2022-12-04T12:28:17.548Z,19.43
2022-12-04T12:31:05.405Z,20.63
2022-12-04T12:33:37.870Z,21.27
2022-12-04T12:36:10.045Z,19.83
2022-12-04T12:38:45.193Z,18.43
2022-12-04T12:41:17.776Z,20.13
2022-12-04T12:43:50.554Z,19.23
2022-12-04T12:46:25.974Z,19.53
2022-12-04T12:49:02.589Z,20.57
2022-12-04T12:51:37.692Z,21.23
2022-12-04T12:54:15.563Z,18.70
2022-12-04T12:56:49.917Z,19.97
2022-12-04T12:59:21.891Z,21.10
2022-12-04T13:02:00.611Z,21.17
2022-12-04T13:04:36.042Z,20.17
2022-12-04T13:07:15.776Z,20.37
2022-12-04T13:09:49.164Z,20.13
2022-12-04T13:12:19.303Z,21.20
2022-12-04T13:14:49.225Z,21.23
2022-12-04T13:17:22.228Z,18.33
2022-12-04T13:19:53.981Z,18.80
2022-12-04T13:22:32.044Z,19.30
2022-12-04T13:25:31.444Z,17.80
2022-12-04T13:28:12.851Z,19.47
2022-12-04T13:30:49.037Z,19.40
2022-12-04T13:33:39.497Z,18.50
2022-12-04T13:36:20.519Z,18.10
2022-12-04T13:39:03.700Z,18.53
2022-12-04T13:41:36.312Z,18.97
2022-12-04T13:44:14.309Z,20.13
2022-12-04T13:46:55.713Z,19.93
2022-12-04T13:49:28.568Z,18.20
2022-12-04T13:52:29.084Z,19.03
2022-12-04T13:55:00.662Z,18.40
2022-12-04T13:57:28.738Z,18.83
2022-12-04T14:00:05.279Z,19.37
2022-12-04T14:02:45.255Z,17.87
2022-12-04T14:05:15.792Z,19.43
2022-12-04T14:07:46.759Z,19.03
2022-12-04T14:10:29.087Z,17.60
2022-12-04T14:13:03.919Z,18.83
2022-12-04T14:15:34.488Z,19.43
2022-12-04T14:18:07.537Z,19.73
2022-12-04T14:20:36.956Z,18.47
2022-12-04T14:23:11.039Z,18.17
2022-12-04T14:25:40.976Z,17.53
2022-12-04T14:28:25.807Z,18.03
2022-12-04T14:31:16.821Z,17.43
2022-12-04T14:33:49.131Z,18.17
2022-12-04T14:36:25.012Z,18.33
2022-12-04T14:39:08.727Z,16.97
2022-12-04T14:41:36.856Z,15.97
2022-12-04T14:44:05.232Z,16.90
2022-12-04T14:46:41.119Z,15.97
2022-12-04T14:49:29.687Z,15.73
2022-12-04T14:52:06.999Z,15.00
2022-12-04T14:54:41.849Z,18.10
2022-12-04T14:57:28.173Z,16.27
2022-12-04T14:59:56.842Z,18.03
2022-12-04T15:02:34.613Z,18.83
2022-12-04T15:05:04.615Z,16.90
2022-12-04T15:07:34.363Z,16.60
2022-12-04T15:10:32.198Z,15.07
2022-12-04T15:13:00.164Z,15.57
2022-12-04T15:15:30.264Z,17.27
2022-12-04T15:18:00.003Z,17.53
2022-12-04T15:20:31.292Z,17.70
2022-12-04T15:23:04.735Z,17.53
2022-12-04T15:25:37.296Z,18.37
2022-12-04T15:28:12.062Z,17.57
2022-12-04T15:30:43.013Z,16.87
2022-12-04T15:33:20.951Z,15.23
2022-12-04T15:35:53.327Z,17.13
2022-12-04T15:38:22.903Z,16.87
2022-12-04T15:40:53.274Z,15.37
2022-12-04T15:43:29.663Z,16.60
2022-12-04T15:45:58.495Z,14.77
2022-12-04T15:48:28.968Z,16.37
2022-12-04T15:50:59.270Z,15.27
2022-12-04T15:53:31.366Z,16.43
2022-12-04T15:56:02.601Z,16.07
2022-12-04T15:58:32.461Z,16.57
2022-12-04T16:01:02.293Z,18.27
2022-12-04T16:03:34.410Z,17.20
2022-12-04T16:06:15.372Z,17.00
2022-12-04T16:08:46.521Z,17.27
2022-12-04T16:11:32.958Z,18.30
2022-12-04T16:14:15.038Z,18.57
2022-12-04T16:16:45.617Z,17.13
2022-12-04T16:19:22.531Z,18.07
2022-12-04T16:21:51.049Z,16.17
2022-12-04T16:24:20.575Z,16.67
2022-12-04T16:26:51.066Z,16.60
2022-12-04T16:29:19.254Z,15.53
2022-12-04T16:31:47.247Z,14.47
2022-12-04T16:34:15.488Z,16.57
2022-12-04T16:36:43.440Z,15.73
2022-12-04T16:39:11.389Z,14.80
2022-12-04T16:41:41.796Z,17.13
2022-12-04T16:44:14.957Z,16.13
2022-12-04T16:46:43.564Z,16.63
2022-12-04T16:49:12.554Z,17.03
2022-12-04T16:51:45.002Z,17.27
2022-12-04T16:54:14.243Z,17.13
2022-12-04T16:56:43.460Z,19.50
2022-12-04T16:59:12.443Z,18.73
2022-12-04T17:01:44.407Z,16.57
2022-12-04T17:04:12.486Z,15.60
2022-12-04T17:06:40.846Z,14.90
2022-12-04T17:09:09.763Z,15.63
2022-12-04T17:11:38.216Z,15.13
2022-12-04T17:14:08.015Z,16.43
2022-12-04T17:16:36.188Z,16.63
2022-12-04T17:19:04.589Z,16.30
2022-12-04T17:21:32.482Z,16.07
2022-12-04T17:24:00.406Z,17.37
2022-12-04T17:26:28.457Z,18.50
2022-12-04T17:28:56.316Z,18.17
2022-12-04T17:31:28.000Z,17.67
2022-12-04T17:33:57.748Z,16.93
2022-12-04T17:36:27.549Z,18.07
2022-12-04T17:38:56.917Z,17.60
2022-12-04T17:41:25.384Z,16.87
2022-12-04T17:43:53.326Z,16.53
2022-12-04T17:46:24.542Z,16.67
2022-12-04T17:48:56.382Z,15.00
2022-12-04T17:51:25.823Z,15.83
2022-12-04T17:53:54.001Z,16.40
2022-12-04T17:56:24.339Z,16.47
2022-12-04T17:58:52.935Z,16.30
2022-12-04T18:01:22.870Z,17.07
2022-12-04T18:03:51.352Z,16.23
2022-12-04T18:06:22.709Z,17.67
2022-12-04T18:08:51.004Z,16.77
2022-12-04T18:11:20.771Z,16.73
2022-12-04T18:13:49.475Z,15.80
2022-12-04T18:16:17.520Z,13.57
2022-12-04T18:18:47.016Z,14.37
2022-12-04T18:21:16.015Z,14.33
2022-12-04T18:23:45.855Z,15.50
2022-12-04T18:26:15.985Z,12.47
2022-12-04T18:28:44.072Z,14.60
2022-12-04T18:31:12.858Z,15.43
2022-12-04T18:33:42.292Z,15.23
2022-12-04T18:36:14.256Z,14.40
2022-12-04T18:38:42.233Z,13.57
2022-12-04T18:41:13.271Z,14.27
2022-12-04T18:43:45.153Z,12.80
2022-12-04T18:46:15.130Z,14.30
2022-12-04T18:48:43.772Z,13.67
2022-12-04T18:51:16.845Z,14.17
2022-12-04T18:53:45.638Z,13.57
2022-12-04T18:56:15.755Z,14.03
2022-12-04T18:58:44.556Z,14.53
2022-12-04T19:01:14.780Z,14.33
2022-12-04T19:03:43.284Z,14.97
2022-12-04T19:06:12.204Z,14.17
2022-12-04T19:08:43.199Z,13.30
2022-12-04T19:11:14.662Z,14.17
2022-12-04T19:13:43.308Z,13.57
2022-12-04T19:16:13.060Z,15.27
2022-12-04T19:18:42.073Z,15.07
2022-12-04T19:21:10.561Z,15.03
2022-12-04T19:23:38.780Z,14.47
2022-12-04T19:26:07.042Z,13.90
2022-12-04T19:28:36.607Z,13.90
2022-12-04T19:31:05.152Z,14.50
2022-12-04T19:33:33.079Z,14.17
2022-12-04T19:36:03.032Z,14.70
2022-12-04T19:38:33.120Z,14.30
2022-12-04T19:41:08.116Z,13.33
2022-12-04T19:43:37.909Z,13.27
2022-12-04T19:46:07.122Z,14.33
2022-12-04T19:48:37.853Z,14.80
2022-12-04T19:51:07.451Z,13.97
2022-12-04T19:53:40.667Z,13.93
2022-12-04T19:56:11.150Z,15.03
2022-12-04T19:58:41.450Z,15.87
2022-12-04T20:01:12.880Z,14.63
2022-12-04T20:03:41.029Z,15.60
2022-12-04T20:06:10.862Z,15.07
2022-12-04T20:08:39.554Z,15.80
2022-12-04T20:11:11.588Z,15.63
2022-12-04T20:13:41.471Z,16.57
2022-12-04T20:16:12.289Z,16.03
2022-12-04T20:18:41.295Z,14.53
2022-12-04T20:21:11.787Z,14.77
2022-12-04T20:23:40.290Z,14.03
2022-12-04T20:26:10.685Z,16.37
2022-12-04T20:28:40.682Z,16.80
2022-12-04T20:31:14.345Z,14.97
2022-12-04T20:33:42.524Z,16.30
2022-12-04T20:36:11.123Z,15.47
2022-12-04T20:38:39.575Z,15.23
2022-12-04T20:41:09.696Z,15.47
2022-12-04T20:43:38.166Z,15.83
2022-12-04T20:46:16.231Z,12.80
2022-12-04T20:48:48.492Z,15.00
2022-12-04T20:51:18.474Z,14.57
2022-12-04T20:53:46.928Z,16.03
2022-12-04T20:56:15.248Z,14.80
2022-12-04T20:58:43.150Z,15.27
2022-12-04T21:01:13.195Z,15.00
2022-12-04T21:03:42.920Z,15.17
2022-12-04T21:06:14.837Z,15.73
2022-12-04T21:08:56.806Z,15.93
2022-12-04T21:11:26.637Z,14.10
2022-12-04T21:14:13.994Z,17.60
2022-12-04T21:16:43.848Z,16.67
2022-12-04T21:19:14.943Z,14.87
2022-12-04T21:21:43.227Z,15.33
2022-12-04T21:24:12.821Z,15.13
2022-12-04T21:26:40.818Z,15.67
2022-12-04T21:29:09.518Z,15.50
2022-12-04T21:31:38.132Z,15.37
2022-12-04T21:34:08.376Z,15.90
2022-12-04T21:36:37.879Z,15.57
2022-12-04T21:39:06.643Z,16.17
2022-12-04T21:41:52.048Z,16.20
2022-12-04T21:44:21.859Z,15.80
2022-12-04T21:46:50.651Z,14.77
2022-12-04T21:49:20.291Z,15.60
2022-12-04T21:51:58.433Z,15.70
2022-12-04T21:54:27.066Z,14.63
2022-12-04T21:56:55.648Z,14.73
2022-12-04T21:59:24.251Z,16.57
2022-12-04T22:01:52.565Z,16.83
2022-12-04T22:04:20.713Z,16.93
2022-12-04T22:06:50.090Z,16.17
2022-12-04T22:09:18.794Z,15.50
2022-12-04T22:11:46.722Z,14.80
2022-12-04T22:14:15.104Z,13.83
2022-12-04T22:16:43.520Z,13.90
2022-12-04T22:19:12.648Z,14.17
2022-12-04T22:21:41.203Z,14.70
2022-12-04T22:24:11.433Z,14.47
2022-12-04T22:26:39.944Z,14.80
2022-12-04T22:29:34.094Z,13.53
2022-12-04T22:31:56.330Z,12.73
2022-12-04T22:34:24.313Z,14.10
2022-12-04T22:36:52.282Z,13.27
2022-12-04T22:39:21.539Z,14.27
2022-12-04T22:41:49.425Z,14.10
2022-12-04T22:44:17.338Z,13.47
2022-12-04T22:46:45.284Z,14.20
2022-12-04T22:49:13.239Z,13.93
2022-12-04T22:51:41.183Z,13.80
2022-12-04T22:54:13.993Z,13.73
2022-12-04T22:56:44.074Z,14.00
2022-12-04T22:59:12.063Z,14.43
2022-12-04T23:01:40.028Z,14.43
2022-12-04T23:04:07.946Z,15.40
2022-12-04T23:06:36.382Z,13.90
2022-12-04T23:09:08.538Z,14.40
2022-12-04T23:11:36.960Z,13.53
2022-12-04T23:14:08.663Z,14.23
2022-12-04T23:16:38.836Z,14.40
2022-12-04T23:19:08.435Z,13.97
2022-12-04T23:21:36.688Z,14.03
2022-12-04T23:24:05.271Z,14.53
2022-12-04T23:26:36.194Z,13.50
2022-12-04T23:29:17.856Z,14.40
2022-12-04T23:31:54.381Z,14.53
2022-12-04T23:34:22.502Z,14.90
2022-12-04T23:36:50.522Z,15.00
2022-12-04T23:39:18.479Z,15.03
2022-12-04T23:41:46.403Z,14.20
2022-12-04T23:44:14.285Z,14.03
2022-12-04T23:46:42.294Z,15.17
2022-12-04T23:49:11.715Z,14.80
2022-12-04T23:51:39.594Z,13.80
2022-12-04T23:54:07.555Z,14.40
2022-12-04T23:56:35.517Z,15.20
2022-12-04T23:59:03.480Z,14.47
